Time;durP1;ratioP1;P1;durP2;ratioP2;P2;SDS_P1;SDS_P2;PMS_P1;PMS_P2;Temp;Humidity;BMP_temperature;BMP_pressure;BME280_temperature;BME280_humidity;BME280_pressure;Samples;Min_cycle;Max_cycle;Signal;HPM_P1;HPM_P2
2022/06/01 00:01:32;;;;;;;5.17;4.13;;;13.40;99.90;;;;;;5014818;28;20406;-68
2022/06/01 00:03:57;;;;;;;3.63;3.33;;;13.40;99.90;;;;;;5013312;28;20830;-68
2022/06/01 00:06:23;;;;;;;7.43;3.23;;;13.40;99.90;;;;;;5014247;28;20230;-68
2022/06/01 00:08:48;;;;;;;3.10;2.90;;;13.40;99.90;;;;;;5015079;28;20231;-68
2022/06/01 00:11:14;;;;;;;5.37;3.53;;;13.40;99.90;;;;;;5016151;28;20252;-69
2022/06/01 00:13:41;;;;;;;2.70;2.43;;;13.40;99.90;;;;;;5016398;28;20169;-68
2022/06/01 00:16:07;;;;;;;4.37;3.67;;;13.40;99.90;;;;;;5014390;28;20176;-67
2022/06/01 00:18:33;;;;;;;4.07;3.43;;;13.40;99.90;;;;;;5016958;28;20469;-68
2022/06/01 00:20:58;;;;;;;3.57;3.10;;;13.40;99.90;;;;;;5016520;28;20415;-69
2022/06/01 00:23:24;;;;;;;4.20;3.07;;;13.40;99.90;;;;;;5015735;28;20428;-69
2022/06/01 00:25:50;;;;;;;3.43;2.70;;;13.40;99.90;;;;;;5015472;28;20594;-69
2022/06/01 00:28:16;;;;;;;3.57;2.80;;;13.40;99.90;;;;;;5013196;28;20407;-68
2022/06/01 00:30:41;;;;;;;3.93;3.40;;;13.50;99.90;;;;;;5013640;28;20180;-67
2022/06/01 00:33:07;;;;;;;6.27;3.60;;;13.50;99.90;;;;;;5013351;28;20160;-68
2022/06/01 00:35:33;;;;;;;3.60;3.00;;;13.50;99.90;;;;;;5013177;28;20226;-67
2022/06/01 00:37:58;;;;;;;4.30;2.87;;;13.40;99.90;;;;;;5013520;28;20203;-67
2022/06/01 00:40:26;;;;;;;5.10;3.63;;;13.40;99.90;;;;;;5013322;28;20182;-68
2022/06/01 00:42:57;;;;;;;3.60;2.77;;;13.40;99.90;;;;;;5013346;28;20661;-68
2022/06/01 00:45:24;;;;;;;3.57;3.00;;;13.40;99.90;;;;;;5013162;28;20447;-68
2022/06/01 00:47:50;;;;;;;3.67;3.37;;;13.40;99.90;;;;;;5014035;28;20443;-68
2022/06/01 00:50:26;;;;;;;3.30;3.00;;;13.40;99.90;;;;;;5015422;28;20493;-68
2022/06/01 00:53:09;;;;;;;5.37;3.70;;;13.40;99.90;;;;;;5013775;28;20395;-68
2022/06/01 00:55:51;;;;;;;8.27;4.30;;;13.40;99.90;;;;;;5013088;28;20572;-68
2022/06/01 00:58:23;;;;;;;6.67;3.80;;;13.40;99.90;;;;;;5013048;28;20486;-68
2022/06/01 01:00:50;;;;;;;4.50;3.90;;;13.50;99.90;;;;;;5013436;28;20411;-68
2022/06/01 01:03:17;;;;;;;4.43;4.03;;;13.50;99.90;;;;;;5012804;28;20474;-68
2022/06/01 01:05:58;;;;;;;3.80;3.50;;;13.50;99.90;;;;;;5013532;28;20458;-67
2022/06/01 01:08:24;;;;;;;4.53;3.97;;;13.40;99.90;;;;;;5012901;28;20426;-68
2022/06/01 01:10:49;;;;;;;4.50;4.10;;;13.40;99.90;;;;;;5012793;28;20765;-68
2022/06/01 01:13:15;;;;;;;4.60;4.20;;;13.30;99.90;;;;;;5012672;28;20176;-68
2022/06/01 01:15:54;;;;;;;5.53;4.27;;;13.30;99.90;;;;;;5012889;28;20173;-68
2022/06/01 01:18:29;;;;;;;4.20;3.90;;;13.30;99.90;;;;;;5013653;28;20195;-68
2022/06/01 01:21:03;;;;;;;3.40;3.20;;;13.30;99.90;;;;;;5013730;28;20423;-69
2022/06/01 01:23:40;;;;;;;3.83;3.40;;;13.30;99.90;;;;;;5014961;28;20439;-69
2022/06/01 01:26:06;;;;;;;4.40;4.03;;;13.30;99.90;;;;;;5014737;28;20550;-68
2022/06/01 01:28:33;;;;;;;4.37;3.83;;;13.30;99.90;;;;;;5013237;28;20514;-68
2022/06/01 01:31:06;;;;;;;3.63;3.33;;;13.20;99.90;;;;;;5014596;28;20611;-68
2022/06/01 01:33:33;;;;;;;4.70;4.17;;;13.20;99.90;;;;;;5014461;28;20403;-68
2022/06/01 01:36:06;;;;;;;3.83;3.47;;;13.20;99.90;;;;;;5014911;28;20419;-68
2022/06/01 01:38:43;;;;;;;3.40;3.00;;;13.10;99.90;;;;;;5015145;28;20438;-68
2022/06/01 01:41:14;;;;;;;3.30;2.93;;;13.10;99.90;;;;;;5021372;28;20465;-67
2022/06/01 01:43:49;;;;;;;8.83;3.23;;;13.20;99.90;;;;;;5021421;28;20411;-68
2022/06/01 01:46:15;;;;;;;4.73;3.80;;;13.10;99.90;;;;;;5021498;28;20453;-68
2022/06/01 01:48:41;;;;;;;3.20;3.00;;;13.10;99.90;;;;;;5044519;23;20816;-68
2022/06/01 01:51:07;;;;;;;2.70;2.50;;;13.10;99.90;;;;;;5035023;28;20510;-67
2022/06/01 01:53:33;;;;;;;3.10;2.80;;;13.10;99.90;;;;;;5037844;28;20218;-67
2022/06/01 01:56:20;;;;;;;2.90;2.70;;;13.10;99.90;;;;;;5037657;28;20171;-67
2022/06/01 01:59:21;;;;;;;3.03;2.83;;;13.10;99.90;;;;;;5037883;28;20418;-67
2022/06/01 02:01:55;;;;;;;3.47;3.17;;;13.10;99.90;;;;;;5038044;28;20919;-67
2022/06/01 02:07:29;;;;;;;4.73;3.53;;;13.10;99.90;;;;;;5037977;28;20939;-67
2022/06/01 02:12:43;;;;;;;3.43;3.23;;;13.10;99.90;;;;;;5037760;28;20456;-67
2022/06/01 02:15:15;;;;;;;8.10;3.30;;;13.10;99.90;;;;;;5037453;28;20416;-68
2022/06/01 02:17:51;;;;;;;4.27;3.87;;;13.10;99.90;;;;;;5037729;28;20436;-68
2022/06/01 02:20:36;;;;;;;3.57;3.27;;;13.10;99.90;;;;;;5037606;28;20776;-66
2022/06/01 02:23:02;;;;;;;5.90;4.10;;;13.10;99.90;;;;;;5037791;28;20409;-67
2022/06/01 02:25:29;;;;;;;5.07;4.07;;;13.10;99.90;;;;;;5037315;28;20445;-67
2022/06/01 02:27:57;;;;;;;6.07;4.50;;;13.10;99.90;;;;;;5037697;28;20772;-66
2022/06/01 02:30:27;;;;;;;6.90;4.50;;;13.10;99.90;;;;;;5037505;28;20422;-67
2022/06/01 02:32:54;;;;;;;5.63;4.57;;;13.10;99.90;;;;;;5037638;28;20405;-67
2022/06/01 02:35:22;;;;;;;5.40;4.23;;;13.10;99.90;;;;;;5037373;28;20421;-66
2022/06/01 02:37:51;;;;;;;5.07;4.10;;;13.10;99.90;;;;;;5037581;28;20908;-66
2022/06/01 02:40:21;;;;;;;5.93;4.00;;;13.10;99.90;;;;;;5037362;28;20449;-67
2022/06/01 02:42:51;;;;;;;5.77;3.20;;;13.10;99.90;;;;;;5037291;28;20411;-66
2022/06/01 02:45:23;;;;;;;3.90;3.57;;;13.10;99.90;;;;;;5037147;28;20518;-66
2022/06/01 02:47:52;;;;;;;3.97;3.53;;;13.10;99.90;;;;;;5037666;28;20415;-66
2022/06/01 02:50:20;;;;;;;4.87;4.37;;;13.00;99.90;;;;;;5036204;28;20442;-66
2022/06/01 02:52:46;;;;;;;5.03;3.80;;;13.00;99.90;;;;;;5034002;28;20460;-67
2022/06/01 02:55:14;;;;;;;3.80;3.50;;;13.00;99.90;;;;;;5033783;28;20833;-66
2022/06/01 02:57:41;;;;;;;3.50;3.20;;;13.00;99.90;;;;;;5034647;28;20698;-67
2022/06/01 03:00:10;;;;;;;4.57;3.80;;;13.10;99.90;;;;;;5034883;28;20430;-67
2022/06/01 03:02:39;;;;;;;3.77;3.20;;;13.10;99.90;;;;;;5034526;28;20406;-67
2022/06/01 03:05:05;;;;;;;4.60;3.57;;;13.10;99.90;;;;;;5034107;28;20499;-68
2022/06/01 03:07:32;;;;;;;3.10;2.90;;;13.10;99.90;;;;;;5034374;28;20419;-68
2022/06/01 03:09:57;;;;;;;4.10;2.70;;;13.10;99.90;;;;;;5034022;28;20426;-68
2022/06/01 03:12:23;;;;;;;3.17;2.43;;;13.10;99.90;;;;;;5034262;28;20418;-68
2022/06/01 03:14:48;;;;;;;3.53;3.03;;;13.10;99.90;;;;;;5032794;28;20171;-68
2022/06/01 03:17:14;;;;;;;3.53;3.23;;;13.10;99.90;;;;;;5034300;28;20172;-67
2022/06/01 03:19:39;;;;;;;4.40;3.80;;;13.10;99.90;;;;;;5034171;28;20222;-68
2022/06/01 03:22:05;;;;;;;5.70;3.30;;;13.10;99.90;;;;;;5034073;28;20183;-68
2022/06/01 03:24:30;;;;;;;3.00;2.80;;;13.20;99.90;;;;;;5033878;28;20642;-67
2022/06/01 03:26:56;;;;;;;4.50;3.20;;;13.10;99.90;;;;;;5034127;28;20168;-67
2022/06/01 03:29:23;;;;;;;3.60;3.03;;;13.10;99.90;;;;;;5034151;28;20229;-68
2022/06/01 03:31:48;;;;;;;3.33;3.03;;;13.20;99.90;;;;;;5034275;28;20262;-67
2022/06/01 03:34:14;;;;;;;4.47;2.83;;;13.10;99.90;;;;;;5033530;28;20933;-67
2022/06/01 03:36:41;;;;;;;3.30;2.50;;;13.20;99.90;;;;;;5033718;28;20228;-68
2022/06/01 03:39:06;;;;;;;3.60;2.80;;;13.20;99.90;;;;;;5033390;28;20434;-67
2022/06/01 03:41:32;;;;;;;4.00;3.20;;;13.20;99.90;;;;;;5033320;28;20406;-67
2022/06/01 03:46:41;;;;;;;4.50;3.00;;;13.20;99.90;;;;;;5033834;28;20330;-68
2022/06/01 03:49:07;;;;;;;4.43;3.40;;;13.30;99.90;;;;;;5033295;28;20979;-68
2022/06/01 03:51:32;;;;;;;3.37;2.50;;;13.30;99.90;;;;;;5033237;28;20198;-67
2022/06/01 03:53:58;;;;;;;3.27;2.67;;;13.30;99.90;;;;;;5033658;28;20186;-68
2022/06/01 03:56:23;;;;;;;3.10;2.47;;;13.40;99.90;;;;;;5033016;28;20191;-68
2022/06/01 03:58:50;;;;;;;3.03;2.73;;;13.50;99.90;;;;;;5033628;28;20203;-68
2022/06/01 04:01:16;;;;;;;2.43;2.30;;;13.50;99.90;;;;;;5031979;28;20179;-68
2022/06/01 04:03:41;;;;;;;2.70;2.50;;;13.60;99.90;;;;;;5032784;28;20415;-67
2022/06/01 04:06:07;;;;;;;2.83;2.63;;;13.50;99.90;;;;;;5032742;28;20786;-67
2022/06/01 04:08:32;;;;;;;2.23;2.07;;;13.60;99.90;;;;;;5033184;28;20270;-67
2022/06/01 04:10:58;;;;;;;2.07;1.97;;;13.70;99.90;;;;;;5032821;28;20164;-66
2022/06/01 04:13:26;;;;;;;2.27;2.07;;;13.70;99.90;;;;;;5032661;28;20175;-66
2022/06/01 04:15:52;;;;;;;2.43;2.20;;;13.70;99.90;;;;;;5032494;28;20549;-66
2022/06/01 04:18:17;;;;;;;1.97;1.83;;;13.80;99.90;;;;;;5032626;28;20410;-66
2022/06/01 04:20:44;;;;;;;3.50;2.93;;;13.90;99.90;;;;;;5032669;28;20198;-66
2022/06/01 04:23:11;;;;;;;1.63;1.50;;;13.90;99.90;;;;;;5032746;28;20506;-65
2022/06/01 04:25:36;;;;;;;2.33;2.13;;;14.00;99.90;;;;;;5032316;28;20454;-66
2022/06/01 04:28:02;;;;;;;2.30;2.10;;;14.00;99.90;;;;;;5032613;28;20419;-66
2022/06/01 04:30:27;;;;;;;2.53;2.03;;;14.00;99.90;;;;;;5032480;28;20270;-67
2022/06/01 04:32:54;;;;;;;2.20;2.10;;;13.80;99.90;;;;;;5032408;28;20183;-66
2022/06/01 04:35:21;;;;;;;2.70;2.50;;;13.80;99.90;;;;;;5032188;28;20598;-66
2022/06/01 04:37:47;;;;;;;2.77;2.57;;;13.60;99.90;;;;;;5032409;28;20893;-66
2022/06/01 04:40:13;;;;;;;2.70;2.50;;;13.70;99.90;;;;;;5032326;28;20433;-67
2022/06/01 04:42:40;;;;;;;3.20;2.87;;;13.70;99.90;;;;;;5032168;28;20656;-67
2022/06/01 04:45:08;;;;;;;2.63;2.43;;;13.70;99.90;;;;;;5032076;28;20450;-66
2022/06/01 04:47:33;;;;;;;3.20;3.00;;;13.80;99.90;;;;;;5032159;28;20468;-66
2022/06/01 04:49:59;;;;;;;3.80;2.90;;;13.90;99.90;;;;;;5031813;28;20483;-66
2022/06/01 04:52:24;;;;;;;2.67;2.43;;;14.00;99.90;;;;;;5031907;28;20164;-66
2022/06/01 04:54:50;;;;;;;2.83;2.63;;;14.50;99.90;;;;;;5031898;28;20180;-66
2022/06/01 04:57:16;;;;;;;2.47;2.30;;;15.10;99.90;;;;;;5031829;28;20177;-66
2022/06/01 04:59:41;;;;;;;2.40;2.20;;;15.20;99.90;;;;;;5031663;28;20192;-66
2022/06/01 05:02:07;;;;;;;2.43;2.23;;;15.50;99.90;;;;;;5031776;28;20173;-65
2022/06/01 05:04:32;;;;;;;5.07;2.77;;;15.50;99.90;;;;;;5031275;28;20193;-66
2022/06/01 05:06:58;;;;;;;3.70;2.30;;;15.30;99.90;;;;;;5031619;28;20190;-66
2022/06/01 05:09:24;;;;;;;2.60;2.40;;;15.20;99.90;;;;;;5031694;28;20194;-67
2022/06/01 05:11:50;;;;;;;1.90;1.80;;;15.70;99.90;;;;;;5031455;28;20458;-66
2022/06/01 05:14:16;;;;;;;2.60;2.40;;;16.70;99.90;;;;;;5030087;28;20420;-67
2022/06/01 05:16:41;;;;;;;3.93;2.53;;;16.20;99.90;;;;;;5031691;28;20421;-67
2022/06/01 05:19:07;;;;;;;1.90;1.80;;;15.90;99.90;;;;;;5031428;28;20275;-66
2022/06/01 05:21:32;;;;;;;2.20;2.10;;;15.70;99.90;;;;;;5032383;28;20178;-66
2022/06/01 05:23:58;;;;;;;2.40;2.20;;;15.40;99.90;;;;;;5031401;28;20195;-66
2022/06/01 05:26:24;;;;;;;2.43;2.20;;;15.60;99.90;;;;;;5031241;28;20204;-67
2022/06/01 05:28:49;;;;;;;3.50;3.20;;;16.30;99.90;;;;;;5031367;28;20423;-67
2022/06/01 05:31:15;;;;;;;2.60;2.40;;;16.10;99.90;;;;;;5031574;28;20171;-67
2022/06/01 05:33:45;;;;;;;2.80;2.60;;;16.40;99.90;;;;;;5031444;28;20176;-66
2022/06/01 05:36:13;;;;;;;2.93;2.67;;;16.40;99.90;;;;;;5031292;28;20176;-67
2022/06/01 05:38:39;;;;;;;2.63;2.43;;;16.30;99.90;;;;;;5031442;28;20435;-68
2022/06/01 05:41:04;;;;;;;3.03;2.80;;;16.40;99.90;;;;;;5031509;28;20414;-67
2022/06/01 05:43:30;;;;;;;2.33;2.13;;;16.90;99.90;;;;;;5031210;28;20780;-66
2022/06/01 05:45:56;;;;;;;2.87;2.63;;;17.70;99.90;;;;;;5031080;28;20556;-67
2022/06/01 05:48:22;;;;;;;2.60;2.40;;;17.10;99.90;;;;;;5031318;28;20165;-66
2022/06/01 05:50:48;;;;;;;2.60;2.40;;;17.50;99.90;;;;;;5031297;28;20680;-66
2022/06/01 05:53:14;;;;;;;2.50;2.40;;;17.60;99.90;;;;;;5031255;28;20417;-66
2022/06/01 05:55:40;;;;;;;2.80;2.60;;;17.70;99.90;;;;;;5031249;28;20255;-66
2022/06/01 05:58:18;;;;;;;2.33;2.10;;;17.60;99.90;;;;;;5031523;28;20922;-67
2022/06/01 06:00:45;;;;;;;2.80;2.60;;;17.40;99.90;;;;;;5031212;28;20206;-67
2022/06/01 06:03:11;;;;;;;2.70;2.20;;;18.20;99.90;;;;;;5031203;28;20421;-67
2022/06/01 06:08:22;;;;;;;1.80;1.70;;;18.00;99.90;;;;;;5031418;28;20869;-67
2022/06/01 06:10:48;;;;;;;2.30;2.10;;;19.00;99.90;;;;;;5031180;28;20420;-65
2022/06/01 06:13:14;;;;;;;2.20;2.00;;;18.60;99.90;;;;;;5030711;28;20490;-65
2022/06/01 06:15:39;;;;;;;2.27;2.07;;;19.80;99.90;;;;;;5029362;28;20241;-66
2022/06/01 06:18:06;;;;;;;1.93;1.83;;;19.30;99.90;;;;;;5030900;28;20468;-66
2022/06/01 06:20:32;;;;;;;1.93;1.83;;;19.30;99.90;;;;;;5030711;28;20197;-66
2022/06/01 06:22:58;;;;;;;1.63;1.53;;;19.80;99.90;;;;;;5030774;28;20552;-67
2022/06/01 06:25:23;;;;;;;2.03;1.87;;;20.10;99.90;;;;;;5030636;28;20467;-67
2022/06/01 06:27:49;;;;;;;1.57;1.47;;;20.70;99.90;;;;;;5034140;28;20174;-66
2022/06/01 06:30:18;;;;;;;2.33;2.10;;;20.30;99.90;;;;;;5033451;28;20195;-67
2022/06/01 06:32:44;;;;;;;2.87;2.03;;;19.80;99.90;;;;;;5034392;28;20639;-66
2022/06/01 06:35:09;;;;;;;1.87;1.67;;;20.70;99.90;;;;;;5034073;28;20506;-66
2022/06/01 06:37:35;;;;;;;5.33;1.80;;;20.60;99.90;;;;;;5033093;28;20180;-66
2022/06/01 06:40:00;;;;;;;2.37;1.90;;;20.40;99.90;;;;;;5034422;28;20249;-66
2022/06/01 06:42:26;;;;;;;1.80;1.70;;;20.20;99.90;;;;;;5032979;28;20237;-66
2022/06/01 06:44:51;;;;;;;1.57;1.47;;;20.30;99.90;;;;;;5032921;28;20173;-66
2022/06/01 06:47:17;;;;;;;1.63;1.53;;;20.80;99.90;;;;;;5034273;28;20168;-67
2022/06/01 06:49:42;;;;;;;1.60;1.47;;;20.30;99.90;;;;;;5034151;28;20207;-67
2022/06/01 06:52:07;;;;;;;2.07;1.87;;;19.80;99.90;;;;;;5034218;28;20178;-65
2022/06/01 06:54:34;;;;;;;3.40;2.20;;;19.40;99.90;;;;;;5034536;28;20170;-68
2022/06/01 06:56:59;;;;;;;1.50;1.40;;;19.60;99.90;;;;;;5033947;28;20165;-68
2022/06/01 06:59:26;;;;;;;2.13;1.67;;;20.80;99.90;;;;;;5034069;28;20420;-67
2022/06/01 07:01:51;;;;;;;2.00;1.90;;;20.20;99.90;;;;;;5034291;28;20167;-66
2022/06/01 07:04:18;;;;;;;1.87;1.77;;;20.60;99.90;;;;;;5034204;28;20777;-66
2022/06/01 07:06:43;;;;;;;2.10;2.00;;;20.90;99.90;;;;;;5033901;28;20212;-65
2022/06/01 07:09:09;;;;;;;2.13;1.93;;;21.20;99.90;;;;;;5034155;28;20424;-66
2022/06/01 07:11:35;;;;;;;2.20;2.00;;;21.30;99.90;;;;;;5032110;28;20226;-67
2022/06/01 07:14:01;;;;;;;1.60;1.50;;;20.30;99.90;;;;;;5033959;28;20411;-65
2022/06/01 07:16:32;;;;;;;2.30;1.47;;;20.20;99.90;;;;;;5035102;28;20416;-67
2022/06/01 07:18:59;;;;;;;3.80;1.90;;;22.30;99.90;;;;;;5034066;28;20227;-66
2022/06/01 07:21:25;;;;;;;1.83;1.73;;;21.30;99.90;;;;;;5033936;28;20763;-67
2022/06/01 07:23:51;;;;;;;1.23;1.13;;;22.90;99.90;;;;;;5033586;28;20443;-66
2022/06/01 07:26:20;;;;;;;2.10;1.90;;;22.70;99.90;;;;;;5033186;28;20928;-67
2022/06/01 07:28:46;;;;;;;2.50;1.57;;;21.50;99.90;;;;;;5033575;28;20179;-67
2022/06/01 07:31:13;;;;;;;2.00;1.80;;;22.60;99.90;;;;;;5033659;28;20799;-67
2022/06/01 07:33:39;;;;;;;2.13;1.63;;;22.10;99.90;;;;;;5033367;28;20159;-67
2022/06/01 07:36:08;;;;;;;2.03;1.83;;;22.70;99.90;;;;;;5033285;28;20410;-66
2022/06/01 07:44:20;;;;;;;2.10;1.70;;;21.40;99.90;;;;;;5033523;28;20408;-67
2022/06/01 07:46:46;;;;;;;1.17;1.07;;;21.10;99.90;;;;;;5033237;28;20465;-66
2022/06/01 07:49:12;;;;;;;1.30;1.20;;;21.10;99.90;;;;;;5033000;28;20247;-67
2022/06/01 07:51:39;;;;;;;1.43;1.33;;;20.70;99.90;;;;;;5039729;23;20478;-69
2022/06/01 07:54:05;;;;;;;1.80;1.30;;;21.30;99.90;;;;;;5015526;28;20170;-69
2022/06/01 07:56:31;;;;;;;1.50;1.40;;;20.90;99.90;;;;;;5014126;28;20407;-69
2022/06/01 07:58:56;;;;;;;1.87;1.00;;;20.80;99.90;;;;;;5014493;28;20411;-68
2022/06/01 08:01:25;;;;;;;1.47;1.37;;;21.60;99.90;;;;;;5014296;28;20445;-68
2022/06/01 08:03:51;;;;;;;1.50;1.37;;;21.60;99.90;;;;;;5013944;28;20184;-68
2022/06/01 08:06:17;;;;;;;1.83;1.67;;;22.60;99.90;;;;;;5013946;28;20463;-68
2022/06/01 08:08:42;;;;;;;1.70;1.30;;;21.30;99.90;;;;;;5014083;28;20472;-68
2022/06/01 08:11:08;;;;;;;4.60;1.60;;;21.90;99.90;;;;;;5016117;28;20194;-68
2022/06/01 08:13:33;;;;;;;1.87;1.70;;;21.50;99.90;;;;;;5014000;28;20186;-68
2022/06/01 08:16:00;;;;;;;1.60;1.50;;;20.00;99.90;;;;;;5013513;28;20187;-68
2022/06/01 08:18:26;;;;;;;2.00;1.80;;;19.80;99.90;;;;;;5013484;28;20648;-68
2022/06/01 08:20:52;;;;;;;1.57;1.47;;;19.70;99.90;;;;;;5013980;28;20515;-68
2022/06/01 08:23:20;;;;;;;4.43;1.63;;;20.00;99.90;;;;;;5013701;28;20178;-69
2022/06/01 08:25:46;;;;;;;1.50;1.40;;;20.20;99.90;;;;;;5013277;28;20548;-70
2022/06/01 08:28:11;;;;;;;1.80;1.60;;;19.10;99.90;;;;;;5013590;28;20493;-69
2022/06/01 08:30:38;;;;;;;1.40;1.30;;;19.30;99.90;;;;;;5013528;28;20197;-69
2022/06/01 08:33:05;;;;;;;1.57;1.47;;;19.70;99.90;;;;;;5013802;28;20212;-69
2022/06/01 08:35:40;;;;;;;1.80;1.50;;;19.40;99.90;;;;;;5014686;28;20506;-68
2022/06/01 08:38:06;;;;;;;1.83;1.70;;;19.10;99.90;;;;;;5014564;28;20917;-69
2022/06/01 08:40:53;;;;;;;1.33;1.23;;;19.20;99.90;;;;;;5015214;28;20460;-69
2022/06/01 08:43:24;;;;;;;2.00;1.83;;;19.30;99.90;;;;;;5014738;28;20747;-69
2022/06/01 08:45:56;;;;;;;2.10;1.90;;;18.90;99.90;;;;;;5014725;28;20468;-69
2022/06/01 08:48:48;;;;;;;1.63;1.53;;;19.10;99.90;;;;;;5014383;28;20421;-69
2022/06/01 08:51:14;;;;;;;1.50;1.40;;;19.80;99.90;;;;;;5014628;28;20530;-69
2022/06/01 08:53:40;;;;;;;1.50;1.40;;;19.40;99.90;;;;;;5012187;28;20508;-69
2022/06/01 08:56:15;;;;;;;1.53;1.27;;;20.00;99.90;;;;;;5012789;28;20260;-69
2022/06/01 08:58:49;;;;;;;1.40;1.30;;;19.90;99.90;;;;;;5013205;28;20753;-69
2022/06/01 09:01:20;;;;;;;2.00;1.80;;;19.30;99.90;;;;;;5013305;28;20510;-69
2022/06/01 09:04:06;;;;;;;1.53;1.43;;;19.80;99.90;;;;;;5013828;28;20494;-69
2022/06/01 09:06:40;;;;;;;1.40;1.30;;;20.40;99.90;;;;;;5012836;28;20464;-69
2022/06/01 09:09:26;;;;;;;4.17;1.50;;;20.80;99.90;;;;;;5013068;28;20467;-69
2022/06/01 09:11:54;;;;;;;1.60;1.50;;;20.50;99.90;;;;;;5013181;28;20432;-68
2022/06/01 09:14:30;;;;;;;1.80;1.70;;;19.70;99.90;;;;;;5012864;28;20841;-68
2022/06/01 09:16:57;;;;;;;1.50;1.40;;;20.90;99.90;;;;;;5013071;28;20449;-68
2022/06/01 09:19:27;;;;;;;1.60;1.50;;;20.70;99.90;;;;;;5012947;28;20832;-69
2022/06/01 09:24:48;;;;;;;1.87;1.47;;;20.20;99.90;;;;;;5013065;28;20398;-67
2022/06/01 09:27:15;;;;;;;2.00;1.20;;;20.10;99.90;;;;;;5012762;28;20858;-69
2022/06/01 09:29:52;;;;;;;1.50;1.40;;;21.30;99.90;;;;;;5013082;28;20407;-68
2022/06/01 09:32:38;;;;;;;1.47;1.37;;;21.70;99.60;;;;;;5012825;28;20936;-69
2022/06/01 09:35:08;;;;;;;1.73;1.30;;;22.60;99.30;;;;;;5014294;28;20421;-69
2022/06/01 09:37:42;;;;;;;1.87;1.60;;;23.90;97.70;;;;;;5015297;28;20414;-68
2022/06/01 09:40:28;;;;;;;1.63;1.50;;;23.10;97.10;;;;;;5015584;28;20575;-68
2022/06/01 09:42:54;;;;;;;1.73;1.40;;;23.30;97.80;;;;;;5015688;28;20406;-70
2022/06/01 09:45:32;;;;;;;1.50;1.40;;;22.90;95.20;;;;;;5014660;28;20959;-69
2022/06/01 09:48:21;;;;;;;1.60;1.50;;;22.40;96.30;;;;;;5014416;28;20415;-68
2022/06/01 09:51:00;;;;;;;1.97;1.50;;;20.70;97.20;;;;;;5014329;28;20501;-69
2022/06/01 09:53:33;;;;;;;1.60;1.50;;;22.40;97.30;;;;;;5013757;28;20469;-69
2022/06/01 09:56:02;;;;;;;1.30;1.20;;;22.80;94.70;;;;;;5013008;28;20407;-69
2022/06/01 10:07:04;;;;;;;2.33;1.10;;;22.00;94.80;;;;;;5016849;28;20899;-69
2022/06/01 10:09:32;;;;;;;1.30;1.20;;;21.80;94.20;;;;;;5016642;28;20412;-69
2022/06/01 10:12:14;;;;;;;2.13;1.67;;;21.80;95.10;;;;;;5016436;28;20827;-69
2022/06/01 10:14:48;;;;;;;1.33;1.23;;;21.90;94.50;;;;;;5017011;28;20419;-69
2022/06/01 10:17:22;;;;;;;1.50;1.40;;;22.00;94.10;;;;;;5017272;28;20750;-69
2022/06/01 10:19:56;;;;;;;1.43;1.30;;;22.20;93.20;;;;;;5017403;28;20487;-69
2022/06/01 10:22:42;;;;;;;1.50;1.40;;;22.40;93.30;;;;;;5017375;28;20421;-69
2022/06/01 10:25:26;;;;;;;1.97;1.50;;;22.60;93.20;;;;;;5016269;28;20456;-69
2022/06/01 10:28:00;;;;;;;1.40;1.30;;;21.20;93.20;;;;;;5015485;28;20496;-69
2022/06/01 10:30:31;;;;;;;1.53;1.43;;;21.30;92.30;;;;;;5016479;28;20426;-70
2022/06/01 10:33:03;;;;;;;1.20;1.10;;;21.40;94.00;;;;;;5016549;28;20466;-69
2022/06/01 10:35:51;;;;;;;1.93;1.77;;;21.40;94.30;;;;;;5016481;28;20413;-68
2022/06/01 10:38:30;;;;;;;1.50;1.00;;;21.50;94.90;;;;;;5016322;28;20429;-68
2022/06/01 10:41:10;;;;;;;2.90;1.53;;;21.90;94.50;;;;;;5016755;28;20575;-68
2022/06/01 10:44:05;;;;;;;1.63;1.53;;;21.70;92.20;;;;;;5017031;28;20414;-69
2022/06/01 10:46:47;;;;;;;1.60;1.50;;;21.30;93.70;;;;;;5016630;28;20565;-68
2022/06/01 10:49:21;;;;;;;2.00;1.40;;;21.20;94.20;;;;;;5016362;28;20412;-67
2022/06/01 10:52:06;;;;;;;1.40;1.30;;;21.20;92.90;;;;;;5015898;28;20441;-68
2022/06/01 10:54:50;;;;;;;2.70;1.70;;;20.70;93.80;;;;;;5015945;28;20412;-68
2022/06/01 10:57:19;;;;;;;2.70;1.60;;;20.50;92.90;;;;;;5019161;28;20516;-69
2022/06/01 10:59:45;;;;;;;1.50;1.40;;;20.90;93.40;;;;;;5018812;28;20414;-68
2022/06/01 11:02:31;;;;;;;2.20;1.67;;;21.20;93.40;;;;;;5018097;28;20407;-68
2022/06/01 11:05:13;;;;;;;2.63;2.13;;;21.40;92.30;;;;;;5015885;28;20399;-68
2022/06/01 11:08:07;;;;;;;2.70;1.70;;;20.90;92.20;;;;;;5016128;28;20466;-68
2022/06/01 11:11:09;;;;;;;1.53;1.40;;;20.70;92.80;;;;;;5015061;28;20964;-68
2022/06/01 11:14:18;;;;;;;1.60;1.30;;;21.60;92.10;;;;;;5017215;28;20411;-69
2022/06/01 11:17:01;;;;;;;3.10;2.20;;;21.70;92.80;;;;;;4957727;29;20507;-70
2022/06/01 11:20:05;;;;;;;1.93;1.70;;;22.00;92.30;;;;;;5013287;28;20417;-68
2022/06/01 11:22:59;;;;;;;4.30;1.40;;;22.30;92.80;;;;;;5017243;28;20404;-68
2022/06/01 11:26:06;;;;;;;1.80;1.70;;;22.40;91.20;;;;;;5015468;28;20444;-68
2022/06/01 11:28:53;;;;;;;2.13;1.80;;;21.60;90.70;;;;;;5015441;28;20995;-69
2022/06/01 11:31:20;;;;;;;1.90;1.67;;;21.30;90.90;;;;;;5015627;28;20427;-68
2022/06/01 11:34:10;;;;;;;1.47;1.37;;;21.30;91.30;;;;;;5015939;28;20417;-68
2022/06/01 11:37:03;;;;;;;2.07;1.87;;;21.40;91.10;;;;;;5014565;28;20445;-68
2022/06/01 11:39:41;;;;;;;2.03;1.57;;;21.30;90.20;;;;;;5014937;28;20413;-69
2022/06/01 11:42:21;;;;;;;1.80;1.37;;;20.60;91.50;;;;;;5015364;28;20414;-69
2022/06/01 11:44:55;;;;;;;2.30;1.60;;;20.60;92.10;;;;;;5016086;28;20481;-69
2022/06/01 11:47:23;;;;;;;2.00;1.50;;;20.80;92.10;;;;;;5013487;28;20412;-69
2022/06/01 11:50:17;;;;;;;2.43;1.90;;;21.00;91.60;;;;;;5014270;28;20414;-68
2022/06/01 11:52:45;;;;;;;1.30;1.20;;;20.60;90.70;;;;;;5013412;28;20445;-68
2022/06/01 11:55:36;;;;;;;1.70;1.60;;;21.10;90.20;;;;;;5014298;28;20522;-68
2022/06/01 11:58:12;;;;;;;1.80;1.40;;;21.10;90.30;;;;;;5014572;28;20475;-69
2022/06/01 12:00:51;;;;;;;1.57;1.47;;;21.00;90.50;;;;;;5013244;28;20450;-68
2022/06/01 12:03:19;;;;;;;1.30;1.20;;;20.70;91.10;;;;;;5015361;28;20401;-68
2022/06/01 12:06:07;;;;;;;1.97;1.60;;;20.60;91.60;;;;;;5014743;28;20481;-68
2022/06/01 12:08:50;;;;;;;1.80;1.47;;;21.00;91.30;;;;;;5014088;28;20430;-68
2022/06/01 12:11:41;;;;;;;1.30;1.20;;;21.10;90.50;;;;;;5014103;28;20431;-68
2022/06/01 12:14:41;;;;;;;4.73;1.70;;;21.10;91.10;;;;;;5015806;28;20426;-68
2022/06/01 12:17:18;;;;;;;1.90;1.80;;;21.50;90.40;;;;;;5016354;28;20557;-70
2022/06/01 12:19:47;;;;;;;1.30;1.20;;;21.50;90.80;;;;;;5016091;28;20454;-69
2022/06/01 12:28:49;;;;;;;1.43;1.33;;;20.50;91.00;;;;;;5014045;28;20497;-68
2022/06/01 12:31:36;;;;;;;1.27;1.17;;;20.50;91.00;;;;;;5014000;28;20433;-68
2022/06/01 12:34:13;;;;;;;1.60;1.30;;;20.20;90.90;;;;;;5014270;28;20906;-69
2022/06/01 12:36:45;;;;;;;1.40;1.20;;;20.20;91.70;;;;;;5013428;28;20917;-68
2022/06/01 12:39:31;;;;;;;1.53;1.43;;;20.10;91.30;;;;;;5013917;28;20422;-68
2022/06/01 12:42:10;;;;;;;3.23;1.10;;;20.30;91.60;;;;;;5013781;28;20406;-68
2022/06/01 12:44:38;;;;;;;1.50;1.40;;;19.70;91.60;;;;;;5013806;28;20412;-68
2022/06/01 12:47:04;;;;;;;2.03;1.60;;;19.60;92.70;;;;;;5013236;28;20501;-68
2022/06/01 12:49:40;;;;;;;1.40;1.30;;;19.90;92.70;;;;;;5013598;28;20747;-68
2022/06/01 12:52:15;;;;;;;2.13;1.90;;;19.60;92.80;;;;;;5013217;28;20176;-68
2022/06/01 12:54:51;;;;;;;1.80;1.70;;;19.20;94.00;;;;;;5013178;28;20987;-68
2022/06/01 12:57:37;;;;;;;1.50;1.40;;;18.60;99.20;;;;;;5012903;28;20449;-69
2022/06/01 13:00:27;;;;;;;2.10;1.57;;;17.70;99.90;;;;;;5012930;28;20422;-69
2022/06/01 13:02:52;;;;;;;1.93;1.77;;;17.20;99.90;;;;;;5014628;28;20447;-69
2022/06/01 13:05:23;;;;;;;2.40;2.20;;;17.00;99.90;;;;;;5015815;28;20454;-68
2022/06/01 13:07:54;;;;;;;2.00;1.67;;;16.90;99.90;;;;;;5015204;28;20414;-69
2022/06/01 13:10:32;;;;;;;3.40;2.10;;;16.50;99.90;;;;;;5015046;28;20776;-68
2022/06/01 13:13:23;;;;;;;2.83;1.80;;;16.50;99.90;;;;;;5013455;28;20412;-68
2022/06/01 13:16:04;;;;;;;3.00;2.30;;;16.40;99.90;;;;;;5012948;28;20482;-68
2022/06/01 13:18:35;;;;;;;5.00;2.23;;;16.40;99.90;;;;;;5013088;28;20409;-68
2022/06/01 13:21:07;;;;;;;4.13;1.80;;;16.10;99.90;;;;;;5013152;28;20439;-68
2022/06/01 13:23:49;;;;;;;3.77;2.47;;;16.10;99.90;;;;;;5012840;28;20427;-68
2022/06/01 13:26:33;;;;;;;2.43;2.17;;;16.00;99.90;;;;;;5012776;28;20448;-68
2022/06/01 13:29:17;;;;;;;2.20;2.10;;;16.30;99.90;;;;;;5013579;28;20404;-68
2022/06/01 13:31:45;;;;;;;2.17;2.00;;;16.90;99.90;;;;;;5015401;28;20434;-68
2022/06/01 13:34:22;;;;;;;1.97;1.70;;;17.10;99.90;;;;;;5017144;28;20469;-69
2022/06/01 13:36:49;;;;;;;2.33;1.33;;;17.40;99.90;;;;;;5013874;28;20416;-68
2022/06/01 13:39:15;;;;;;;2.13;1.50;;;17.20;99.90;;;;;;5012574;28;20934;-68
2022/06/01 13:41:51;;;;;;;1.73;1.63;;;17.50;99.90;;;;;;5012876;28;20493;-69
2022/06/01 13:44:54;;;;;;;2.20;1.73;;;17.50;99.90;;;;;;5013050;28;20245;-69